Time;durP1;ratioP1;P1;durP2;ratioP2;P2;SDS_P1;SDS_P2;PMS_P1;PMS_P2;Temp;Humidity;BMP_temperature;BMP_pressure;BME280_temperature;BME280_humidity;BME280_pressure;Samples;Min_cycle;Max_cycle;Signal;HPM_P1;HPM_P2
2023/12/26 00:05:46;;;;;;;570.70;537.35;;;10.40;99.90;;;;;;12337354;28;20134;-35
2023/12/26 00:11:48;;;;;;;548.33;516.10;;;10.40;99.90;;;;;;12323874;28;20467;-35
2023/12/26 00:17:50;;;;;;;599.85;564.65;;;10.40;99.90;;;;;;12331554;28;20070;-35
2023/12/26 00:23:52;;;;;;;615.53;579.30;;;10.40;99.90;;;;;;12328443;28;20043;-36
2023/12/26 00:29:54;;;;;;;611.55;575.75;;;10.40;99.90;;;;;;12328231;28;20043;-36
2023/12/26 00:35:58;;;;;;;621.05;584.50;;;10.50;99.90;;;;;;12327585;28;20047;-36
2023/12/26 00:42:00;;;;;;;598.13;562.88;;;10.40;99.90;;;;;;12320038;28;20058;-36
2023/12/26 00:48:02;;;;;;;619.45;582.75;;;10.40;99.90;;;;;;12325392;28;20051;-36
2023/12/26 00:54:05;;;;;;;634.30;596.65;;;10.50;99.90;;;;;;12326064;28;20125;-36
2023/12/26 01:00:07;;;;;;;637.80;599.85;;;10.40;99.90;;;;;;12330961;28;20042;-36
2023/12/26 01:06:09;;;;;;;623.42;586.85;;;10.50;99.90;;;;;;12326441;28;20105;-36
2023/12/26 01:12:13;;;;;;;582.78;548.83;;;10.50;99.90;;;;;;12333916;28;20053;-36
2023/12/26 01:18:15;;;;;;;566.00;533.00;;;10.50;99.90;;;;;;12330687;28;20181;-36
2023/12/26 01:24:17;;;;;;;564.08;531.05;;;10.50;99.90;;;;;;12314599;28;20055;-36
2023/12/26 01:30:19;;;;;;;557.00;524.00;;;10.50;99.90;;;;;;12341962;28;20058;-36
2023/12/26 01:36:21;;;;;;;566.33;532.83;;;10.60;99.90;;;;;;12331115;28;20411;-35
2023/12/26 01:42:23;;;;;;;602.22;566.97;;;10.60;99.90;;;;;;12337944;28;20058;-36
2023/12/26 01:48:27;;;;;;;637.78;600.00;;;10.50;99.90;;;;;;12328071;28;20085;-36
2023/12/26 01:54:31;;;;;;;612.47;575.92;;;10.50;99.90;;;;;;12325439;28;20047;-36
2023/12/26 02:00:33;;;;;;;671.70;631.50;;;10.50;99.90;;;;;;12330957;28;20407;-36
2023/12/26 02:06:37;;;;;;;653.45;614.22;;;10.50;99.90;;;;;;12324194;28;20062;-36
2023/12/26 02:12:39;;;;;;;629.50;591.83;;;10.60;99.90;;;;;;12337925;28;20052;-36
2023/12/26 02:18:42;;;;;;;549.38;516.92;;;10.50;99.90;;;;;;12332122;28;20047;-36
2023/12/26 02:24:44;;;;;;;554.65;521.95;;;10.50;99.90;;;;;;12325499;28;20051;-36
2023/12/26 02:30:46;;;;;;;490.02;460.33;;;10.50;99.90;;;;;;12327561;28;20130;-35
2023/12/26 02:36:49;;;;;;;433.95;407.73;;;10.50;99.90;;;;;;12336518;28;20115;-36
2023/12/26 02:42:51;;;;;;;453.60;426.33;;;10.50;99.90;;;;;;12330398;28;20134;-36
2023/12/26 02:48:53;;;;;;;501.63;471.33;;;10.40;99.90;;;;;;12324745;28;20051;-36
2023/12/26 02:54:55;;;;;;;418.88;393.60;;;10.30;99.90;;;;;;12321698;28;20432;-36
2023/12/26 03:00:57;;;;;;;384.90;361.63;;;10.30;99.90;;;;;;12333215;28;20057;-36
2023/12/26 03:06:59;;;;;;;354.73;333.23;;;10.30;99.90;;;;;;12346515;28;20046;-36
2023/12/26 03:13:01;;;;;;;344.75;323.60;;;10.30;99.90;;;;;;12350447;28;20511;-35
2023/12/26 03:19:03;;;;;;;325.13;305.35;;;10.20;99.90;;;;;;12355780;28;20055;-36
2023/12/26 03:25:06;;;;;;;334.13;313.58;;;10.10;99.90;;;;;;12330080;28;20089;-36
2023/12/26 03:31:08;;;;;;;302.70;284.05;;;10.20;99.90;;;;;;12333130;28;20514;-36
2023/12/26 03:37:13;;;;;;;281.40;263.63;;;10.20;99.90;;;;;;12336812;28;20091;-36
2023/12/26 03:43:18;;;;;;;262.40;245.82;;;10.30;99.90;;;;;;12325999;28;20144;-36
2023/12/26 03:49:20;;;;;;;265.08;248.43;;;10.20;99.90;;;;;;12355211;28;20518;-36
2023/12/26 03:55:22;;;;;;;237.85;222.75;;;10.30;99.90;;;;;;12334385;28;20494;-36
2023/12/26 04:01:24;;;;;;;269.10;251.95;;;10.30;99.90;;;;;;12346414;28;20053;-36
2023/12/26 04:07:26;;;;;;;262.30;245.60;;;10.30;99.90;;;;;;12325528;28;20061;-36
2023/12/26 04:13:28;;;;;;;321.40;301.52;;;10.30;99.90;;;;;;12326249;28;20051;-36
2023/12/26 04:19:30;;;;;;;319.15;299.55;;;10.30;99.90;;;;;;12327791;28;20411;-36
2023/12/26 04:25:32;;;;;;;332.70;312.10;;;10.30;99.90;;;;;;12332979;28;20050;-36
2023/12/26 04:31:34;;;;;;;408.00;382.85;;;10.10;99.90;;;;;;12331147;28;20062;-36
2023/12/26 04:37:36;;;;;;;323.75;303.90;;;10.00;99.90;;;;;;12334790;28;20043;-35
2023/12/26 04:43:39;;;;;;;233.35;218.55;;;9.40;99.90;;;;;;12327080;28;20050;-36
2023/12/26 04:49:41;;;;;;;194.25;181.70;;;9.20;99.90;;;;;;12329642;28;20046;-36
2023/12/26 04:55:42;;;;;;;203.63;190.55;;;9.20;99.90;;;;;;12335114;28;20057;-36
2023/12/26 05:01:44;;;;;;;179.25;167.43;;;9.10;99.90;;;;;;12323589;28;20043;-35
2023/12/26 05:07:46;;;;;;;176.93;165.30;;;9.20;99.90;;;;;;12334535;28;20479;-36
2023/12/26 05:13:49;;;;;;;200.38;187.43;;;9.20;99.90;;;;;;12330406;28;20046;-36
2023/12/26 05:19:51;;;;;;;203.30;190.25;;;9.20;99.90;;;;;;12330727;28;20583;-36
2023/12/26 05:25:53;;;;;;;183.45;171.43;;;9.10;99.90;;;;;;12344615;28;20081;-36
2023/12/26 05:32:09;;;;;;;204.13;190.88;;;9.20;99.90;;;;;;12312874;28;20058;-36
2023/12/26 05:38:11;;;;;;;190.90;178.40;;;9.10;99.90;;;;;;12342344;28;20058;-36
2023/12/26 05:44:14;;;;;;;171.15;159.75;;;9.10;99.90;;;;;;12330037;28;20583;-35
2023/12/26 05:50:16;;;;;;;152.85;142.73;;;9.10;99.90;;;;;;12321788;28;20062;-35
2023/12/26 05:56:19;;;;;;;152.70;142.55;;;9.20;99.90;;;;;;12317579;28;20146;-36
2023/12/26 06:02:22;;;;;;;138.82;129.43;;;9.10;99.90;;;;;;12327916;28;20058;-36
2023/12/26 06:08:24;;;;;;;132.98;123.97;;;9.20;99.90;;;;;;12331234;28;20085;-36
2023/12/26 06:14:26;;;;;;;131.85;122.80;;;9.20;99.90;;;;;;12326851;28;20050;-36
2023/12/26 06:20:28;;;;;;;132.02;123.15;;;9.20;99.90;;;;;;12331171;28;20047;-36
2023/12/26 06:26:30;;;;;;;137.02;127.63;;;9.20;99.90;;;;;;12322919;28;20142;-36
2023/12/26 06:32:32;;;;;;;150.15;139.95;;;9.20;99.90;;;;;;12337870;28;20043;-36
2023/12/26 06:38:34;;;;;;;147.43;137.50;;;9.20;99.90;;;;;;12334452;28;20043;-35
2023/12/26 06:44:36;;;;;;;112.88;105.68;;;8.90;99.90;;;;;;12339804;28;20078;-36
2023/12/26 06:50:38;;;;;;;96.55;90.25;;;8.70;99.90;;;;;;12329253;28;20137;-36
2023/12/26 06:56:40;;;;;;;92.55;86.63;;;8.70;99.90;;;;;;12339261;28;20487;-36
2023/12/26 07:02:42;;;;;;;100.47;93.93;;;8.60;99.90;;;;;;12329994;28;20083;-36
2023/12/26 07:08:44;;;;;;;96.75;90.22;;;8.50;99.90;;;;;;12331646;28;20051;-36
2023/12/26 07:14:47;;;;;;;99.85;93.13;;;8.40;99.90;;;;;;12330253;28;20058;-35
2023/12/26 07:20:49;;;;;;;97.75;91.10;;;8.30;99.90;;;;;;12335056;28;20085;-36
2023/12/26 07:26:51;;;;;;;98.65;91.78;;;8.30;99.90;;;;;;12330106;28;20050;-36
2023/12/26 07:32:52;;;;;;;94.30;88.05;;;8.30;99.90;;;;;;12325407;28;20061;-36
2023/12/26 07:38:54;;;;;;;99.53;92.93;;;8.30;99.90;;;;;;12339840;28;20153;-36
2023/12/26 07:44:57;;;;;;;95.00;88.53;;;8.40;99.90;;;;;;12320992;28;20050;-36
2023/12/26 07:50:58;;;;;;;97.90;91.00;;;8.50;99.90;;;;;;12330002;28;20086;-36
2023/12/26 07:57:01;;;;;;;100.07;93.68;;;8.40;99.90;;;;;;12341979;28;20055;-36
2023/12/26 08:03:03;;;;;;;95.18;89.18;;;8.60;99.90;;;;;;12348724;28;20496;-35
2023/12/26 08:09:05;;;;;;;96.72;90.35;;;8.70;99.90;;;;;;12328938;28;20089;-36
2023/12/26 08:15:09;;;;;;;94.85;88.90;;;8.60;99.90;;;;;;12334491;28;20427;-36
2023/12/26 08:21:11;;;;;;;90.13;83.95;;;8.60;99.90;;;;;;12331527;28;20051;-36
2023/12/26 08:27:13;;;;;;;91.90;85.93;;;8.60;99.90;;;;;;12334047;28;20047;-36
2023/12/26 08:33:15;;;;;;;88.25;82.50;;;8.50;99.90;;;;;;12329295;28;20054;-36
2023/12/26 08:39:17;;;;;;;90.43;84.82;;;8.40;99.90;;;;;;12329389;28;20047;-36
2023/12/26 08:45:19;;;;;;;89.75;83.82;;;8.40;99.90;;;;;;12323972;28;20103;-36
2023/12/26 08:51:21;;;;;;;89.97;84.10;;;8.30;99.90;;;;;;12358198;28;20108;-36
2023/12/26 08:57:23;;;;;;;88.97;83.28;;;8.30;99.90;;;;;;12323431;28;20043;-36
2023/12/26 09:03:25;;;;;;;87.90;82.38;;;8.40;99.90;;;;;;12329430;28;20054;-36
2023/12/26 09:09:27;;;;;;;84.55;79.05;;;8.40;99.90;;;;;;12328898;28;20546;-36
2023/12/26 09:15:29;;;;;;;84.55;78.65;;;8.40;99.90;;;;;;12333494;28;20537;-35
2023/12/26 09:21:31;;;;;;;79.07;73.78;;;8.40;99.90;;;;;;12335418;28;20515;-35
2023/12/26 09:27:34;;;;;;;90.05;84.57;;;8.60;99.90;;;;;;12323761;28;20069;-36
2023/12/26 09:33:36;;;;;;;81.32;76.13;;;8.60;99.90;;;;;;12335907;28;20148;-36
2023/12/26 09:39:38;;;;;;;88.30;82.70;;;8.80;99.90;;;;;;12326054;28;20043;-35
2023/12/26 09:45:41;;;;;;;87.45;81.82;;;8.90;99.90;;;;;;12330023;28;20043;-36
2023/12/26 09:51:46;;;;;;;90.47;84.63;;;8.70;99.90;;;;;;12322765;28;20050;-36
2023/12/26 09:57:48;;;;;;;91.40;85.10;;;8.70;99.90;;;;;;12324223;28;20062;-36
2023/12/26 10:03:52;;;;;;;93.45;87.28;;;8.60;99.90;;;;;;12321931;28;20358;-36
2023/12/26 10:09:55;;;;;;;87.28;81.55;;;8.60;99.90;;;;;;12312618;28;20047;-36
2023/12/26 10:15:57;;;;;;;83.93;78.32;;;8.50;99.90;;;;;;12329206;28;20426;-36
2023/12/26 10:21:59;;;;;;;87.30;80.88;;;8.60;99.90;;;;;;12319341;28;20078;-36
2023/12/26 10:28:01;;;;;;;86.93;80.63;;;8.60;99.90;;;;;;12354969;22;20066;-81
2023/12/26 10:34:23;;;;;;;82.20;76.68;;;8.60;99.90;;;;;;12310159;28;20081;-79
2023/12/26 10:40:26;;;;;;;86.43;80.68;;;8.60;99.90;;;;;;12553785;22;20054;-89
2023/12/26 10:46:29;;;;;;;83.00;77.30;;;8.60;99.90;;;;;;12421489;28;20066;-87
2023/12/26 10:52:32;;;;;;;85.63;79.72;;;8.70;99.90;;;;;;12441909;28;20043;-88
2023/12/26 10:58:37;;;;;;;82.25;76.65;;;8.60;99.90;;;;;;12395572;28;20053;-89
2023/12/26 11:04:40;;;;;;;83.22;77.65;;;8.70;99.90;;;;;;12419703;28;20886;-85
2023/12/26 11:10:42;;;;;;;87.80;81.88;;;8.70;99.90;;;;;;12421918;28;20050;-85
2023/12/26 11:16:44;;;;;;;86.13;80.22;;;8.70;99.90;;;;;;12417398;28;20030;-85
2023/12/26 11:22:46;;;;;;;85.45;79.93;;;8.70;99.90;;;;;;12423769;28;20041;-86
2023/12/26 11:28:48;;;;;;;97.60;90.55;;;8.80;99.90;;;;;;12429525;28;20133;-86
2023/12/26 11:34:50;;;;;;;84.75;79.15;;;8.70;99.90;;;;;;12424513;28;20054;-85
2023/12/26 11:40:52;;;;;;;87.88;81.78;;;8.80;99.90;;;;;;12429793;28;20065;-86
2023/12/26 11:46:54;;;;;;;91.07;84.78;;;8.70;99.90;;;;;;12444125;28;20050;-88
2023/12/26 11:52:56;;;;;;;81.93;76.25;;;8.70;99.90;;;;;;12409924;28;20480;-85
2023/12/26 11:58:58;;;;;;;92.88;86.78;;;8.70;99.90;;;;;;12426809;28;20042;-86
2023/12/26 12:05:05;;;;;;;86.63;80.53;;;8.80;99.90;;;;;;12428150;28;20046;-86
2023/12/26 12:11:08;;;;;;;89.70;83.57;;;8.70;99.90;;;;;;12431806;28;20050;-85
2023/12/26 12:17:13;;;;;;;86.10;80.15;;;8.80;99.90;;;;;;12428683;28;20046;-86
2023/12/26 12:23:16;;;;;;;85.15;79.45;;;8.80;99.90;;;;;;12425790;28;20113;-88
2023/12/26 12:29:18;;;;;;;85.18;79.55;;;8.70;99.90;;;;;;12423715;28;20485;-86
2023/12/26 12:35:20;;;;;;;86.38;80.60;;;8.60;99.90;;;;;;12425813;28;20050;-85
2023/12/26 12:41:23;;;;;;;76.72;71.40;;;8.50;99.90;;;;;;12426409;28;20489;-86
2023/12/26 12:47:27;;;;;;;77.13;72.35;;;8.60;99.90;;;;;;12422333;28;20069;-86
2023/12/26 12:53:29;;;;;;;84.47;78.97;;;8.60;99.90;;;;;;12415927;28;20110;-88
2023/12/26 12:59:31;;;;;;;82.90;77.53;;;8.60;99.90;;;;;;12428343;28;20042;-85
2023/12/26 13:05:34;;;;;;;110.68;103.53;;;8.70;99.90;;;;;;12425855;28;20421;-86
2023/12/26 13:11:35;;;;;;;85.15;79.88;;;8.90;99.90;;;;;;12424675;28;20066;-88
2023/12/26 13:17:37;;;;;;;84.45;79.28;;;8.90;99.90;;;;;;12417249;28;20059;-89
2023/12/26 13:23:43;;;;;;;91.97;86.15;;;8.80;99.90;;;;;;12399400;28;20083;-88
2023/12/26 13:29:46;;;;;;;89.43;83.65;;;8.80;99.90;;;;;;12395897;28;20062;-88
2023/12/26 13:35:48;;;;;;;94.93;89.10;;;8.80;99.90;;;;;;12389885;28;20038;-88
2023/12/26 13:41:50;;;;;;;96.07;90.10;;;8.80;99.90;;;;;;12391339;28;20560;-89
2023/12/26 13:47:53;;;;;;;86.97;81.32;;;8.80;99.90;;;;;;12410221;28;20044;-89
2023/12/26 13:53:55;;;;;;;86.05;80.65;;;8.80;99.90;;;;;;12390693;28;20084;-88
2023/12/26 13:59:59;;;;;;;84.40;79.00;;;8.80;99.90;;;;;;12409700;28;20054;-88
2023/12/26 14:06:01;;;;;;;84.53;79.03;;;8.80;99.90;;;;;;12390501;28;20057;-87
2023/12/26 14:12:04;;;;;;;89.60;84.20;;;8.80;99.90;;;;;;12404548;22;20514;-36
2023/12/26 14:18:09;;;;;;;87.90;82.18;;;8.70;99.90;;;;;;12350200;28;20411;-35
2023/12/26 14:24:11;;;;;;;87.70;82.10;;;8.70;99.90;;;;;;12333316;28;20061;-35
2023/12/26 14:30:12;;;;;;;83.45;77.93;;;8.70;99.90;;;;;;12317149;28;20415;-35
2023/12/26 14:36:14;;;;;;;88.82;83.13;;;8.60;99.90;;;;;;12312148;28;20180;-35
2023/12/26 14:42:17;;;;;;;83.28;77.63;;;8.60;99.90;;;;;;12319881;28;20148;-35
2023/12/26 14:48:19;;;;;;;85.47;80.05;;;8.60;99.90;;;;;;12321225;28;20051;-35
2023/12/26 14:54:21;;;;;;;88.18;82.28;;;8.60;99.90;;;;;;12334075;28;20448;-35
2023/12/26 15:00:22;;;;;;;85.82;80.22;;;8.50;99.90;;;;;;12339213;28;20050;-35
2023/12/26 15:06:24;;;;;;;81.55;75.93;;;8.50;99.90;;;;;;12329021;28;20054;-35
2023/12/26 15:12:26;;;;;;;80.57;75.18;;;8.60;99.90;;;;;;12329976;28;20196;-35
2023/12/26 15:18:28;;;;;;;86.10;80.43;;;8.60;99.90;;;;;;12338326;28;20054;-35
2023/12/26 15:24:31;;;;;;;77.97;72.70;;;8.50;99.90;;;;;;12341365;28;20047;-35
2023/12/26 15:30:33;;;;;;;79.45;74.53;;;8.50;99.90;;;;;;12332162;28;20087;-35
2023/12/26 15:36:35;;;;;;;77.05;72.03;;;8.50;99.90;;;;;;12343773;28;20043;-35
2023/12/26 15:42:37;;;;;;;84.90;79.25;;;8.50;99.90;;;;;;12346519;28;20430;-35
2023/12/26 15:48:39;;;;;;;79.38;74.18;;;8.40;99.90;;;;;;12341673;28;20556;-35
2023/12/26 15:54:41;;;;;;;74.57;69.88;;;8.50;99.90;;;;;;12347526;28;20058;-35
2023/12/26 16:00:43;;;;;;;80.20;74.90;;;8.50;99.90;;;;;;12347024;28;20052;-35
2023/12/26 16:06:45;;;;;;;101.57;95.10;;;8.40;99.90;;;;;;12324492;28;20411;-35
2023/12/26 16:12:47;;;;;;;75.90;71.07;;;8.30;99.90;;;;;;12351877;28;20059;-35
2023/12/26 16:18:49;;;;;;;75.97;71.22;;;8.40;99.90;;;;;;12329929;28;20067;-34
2023/12/26 16:24:52;;;;;;;80.57;75.20;;;8.40;99.90;;;;;;12320011;28;20086;-35
2023/12/26 16:30:54;;;;;;;81.75;76.55;;;8.30;99.90;;;;;;12320497;28;20086;-35
2023/12/26 16:36:56;;;;;;;81.65;76.80;;;8.20;99.90;;;;;;12329037;28;20043;-35
2023/12/26 16:42:58;;;;;;;85.47;80.07;;;8.30;99.90;;;;;;12332734;28;20074;-35
2023/12/26 16:49:00;;;;;;;86.97;81.50;;;8.20;99.90;;;;;;12326701;28;20197;-35
2023/12/26 16:55:02;;;;;;;78.15;72.78;;;8.20;99.90;;;;;;12327510;28;20050;-35
2023/12/26 17:01:04;;;;;;;85.75;80.15;;;8.20;99.90;;;;;;12332200;28;20046;-35
2023/12/26 17:07:09;;;;;;;90.32;84.47;;;8.30;99.90;;;;;;12318007;28;20062;-35
2023/12/26 17:13:11;;;;;;;;;;;8.20;99.90;;;;;;12325707;28;20090;-35
2023/12/26 17:19:13;;;;;;;84.85;79.40;;;8.20;99.90;;;;;;12329354;28;20278;-35
2023/12/26 17:25:15;;;;;;;88.88;83.30;;;8.20;99.90;;;;;;12323407;28;20062;-35
2023/12/26 17:31:17;;;;;;;89.40;83.88;;;8.10;99.90;;;;;;12327990;28;20054;-35
2023/12/26 17:37:19;;;;;;;88.50;82.93;;;8.10;99.90;;;;;;12322898;28;20393;-35
2023/12/26 17:43:21;;;;;;;94.88;88.88;;;8.00;99.90;;;;;;12335341;28;20477;-34
2023/12/26 17:49:23;;;;;;;89.88;84.10;;;8.00;99.90;;;;;;12322655;28;20051;-35
2023/12/26 17:55:25;;;;;;;88.38;82.60;;;8.00;99.90;;;;;;12333193;28;20051;-35
2023/12/26 18:01:28;;;;;;;89.03;83.32;;;7.90;99.90;;;;;;12327328;28;20082;-35
2023/12/26 18:07:30;;;;;;;94.22;87.80;;;7.80;99.90;;;;;;12315947;28;20051;-35
2023/12/26 18:13:31;;;;;;;94.78;88.50;;;7.70;99.90;;;;;;12335374;28;20055;-35
2023/12/26 18:19:34;;;;;;;91.32;85.65;;;7.60;99.90;;;;;;12332284;28;20502;-35
2023/12/26 18:25:36;;;;;;;91.55;86.15;;;7.50;99.90;;;;;;12323948;28;20047;-35
2023/12/26 18:31:38;;;;;;;85.47;80.28;;;7.40;99.90;;;;;;12341937;28;20053;-35
2023/12/26 18:37:40;;;;;;;91.25;85.68;;;7.30;99.90;;;;;;12328550;28;20074;-35
2023/12/26 18:43:41;;;;;;;88.80;82.95;;;7.10;99.90;;;;;;12331423;28;20075;-35
2023/12/26 18:49:43;;;;;;;89.80;83.80;;;7.10;99.90;;;;;;12337254;28;20522;-35
2023/12/26 18:55:45;;;;;;;84.07;78.78;;;6.90;99.90;;;;;;12344637;28;20452;-35
2023/12/26 19:01:48;;;;;;;76.72;71.50;;;6.80;99.90;;;;;;12333541;28;20097;-35
2023/12/26 19:07:50;;;;;;;77.50;72.50;;;6.70;99.90;;;;;;12330561;28;20059;-34
2023/12/26 19:13:52;;;;;;;75.45;70.35;;;6.70;99.90;;;;;;12327529;28;20089;-35
2023/12/26 19:19:54;;;;;;;76.95;72.30;;;6.70;99.90;;;;;;12370607;28;20047;-34
2023/12/26 19:25:56;;;;;;;80.50;75.40;;;6.50;99.90;;;;;;12339618;28;20055;-35
2023/12/26 19:31:57;;;;;;;80.53;75.40;;;6.50;99.90;;;;;;12338755;28;20498;-35
2023/12/26 19:38:00;;;;;;;76.75;71.93;;;6.30;99.90;;;;;;12364606;28;20079;-35
2023/12/26 19:44:01;;;;;;;78.50;73.68;;;6.30;99.90;;;;;;12391560;28;20521;-34
2023/12/26 19:50:04;;;;;;;76.43;71.53;;;6.20;99.90;;;;;;12345574;28;20063;-35
2023/12/26 19:56:06;;;;;;;75.05;70.40;;;6.20;99.90;;;;;;12324741;28;20050;-35
2023/12/26 20:02:08;;;;;;;74.18;69.07;;;6.20;99.90;;;;;;12332924;28;20051;-35
2023/12/26 20:08:11;;;;;;;76.13;70.82;;;6.10;99.90;;;;;;12331402;28;20093;-35
2023/12/26 20:14:14;;;;;;;75.88;70.93;;;6.00;99.90;;;;;;12308394;28;20145;-35
2023/12/26 20:20:17;;;;;;;75.25;70.35;;;6.00;99.90;;;;;;12323126;28;20054;-35
2023/12/26 20:26:19;;;;;;;71.23;66.40;;;5.90;99.90;;;;;;12329963;28;20055;-35
2023/12/26 20:32:21;;;;;;;75.43;70.28;;;6.00;99.90;;;;;;12333837;28;20422;-34
2023/12/26 20:38:26;;;;;;;76.57;71.17;;;5.90;99.90;;;;;;12335815;28;20040;-35
2023/12/26 20:44:28;;;;;;;76.78;71.43;;;5.90;99.90;;;;;;12338414;28;20046;-35
2023/12/26 20:50:30;;;;;;;80.43;75.32;;;5.90;99.90;;;;;;12330312;28;20051;-35
2023/12/26 20:56:33;;;;;;;81.40;76.10;;;5.70;99.90;;;;;;12339990;28;20082;-36
2023/12/26 21:02:34;;;;;;;81.15;75.53;;;5.70;99.90;;;;;;12323085;28;20086;-35
2023/12/26 21:08:37;;;;;;;78.05;72.72;;;5.60;99.90;;;;;;12326738;28;20062;-35
2023/12/26 21:14:41;;;;;;;79.38;74.03;;;5.70;99.90;;;;;;12327643;28;20055;-35
2023/12/26 21:20:43;;;;;;;;;;;5.60;99.90;;;;;;12330123;28;20446;-35
2023/12/26 21:26:48;;;;;;;85.55;79.63;;;5.20;99.90;;;;;;12337317;28;20305;-34
2023/12/26 21:32:49;;;;;;;81.43;75.40;;;5.30;99.90;;;;;;12330984;28;20418;-35
2023/12/26 21:38:52;;;;;;;82.25;76.75;;;5.30;99.90;;;;;;12338504;28;20131;-35
2023/12/26 21:44:54;;;;;;;86.78;80.95;;;5.30;99.90;;;;;;12336104;28;20068;-35
2023/12/26 21:50:55;;;;;;;85.60;79.90;;;5.30;99.90;;;;;;12334429;28;20404;-35
2023/12/26 21:56:57;;;;;;;93.15;87.03;;;5.20;99.90;;;;;;12315338;28;20089;-35
2023/12/26 22:02:59;;;;;;;89.88;83.47;;;4.90;99.90;;;;;;12327001;28;20883;-35
2023/12/26 22:09:02;;;;;;;87.30;80.95;;;4.90;99.90;;;;;;12313725;28;20057;-35
2023/12/26 22:15:05;;;;;;;90.50;83.82;;;4.90;99.90;;;;;;12330489;28;20142;-35
2023/12/26 22:21:21;;;;;;;89.95;83.53;;;4.90;99.90;;;;;;12332144;28;20111;-35
2023/12/26 22:27:23;;;;;;;86.45;80.25;;;4.90;99.90;;;;;;12320649;28;20499;-35
2023/12/26 22:33:25;;;;;;;90.95;84.00;;;4.90;99.90;;;;;;12328487;28;20142;-35
2023/12/26 22:39:27;;;;;;;92.88;85.50;;;4.90;99.90;;;;;;12327287;28;20051;-35
2023/12/26 22:45:30;;;;;;;103.88;96.07;;;4.70;99.90;;;;;;12314439;28;21996;-35
2023/12/26 22:51:32;;;;;;;107.13;99.10;;;4.50;99.90;;;;;;12325414;28;20059;-34
2023/12/26 22:57:38;;;;;;;110.80;102.72;;;4.50;99.90;;;;;;12332887;28;20039;-34
2023/12/26 23:03:42;;;;;;;103.10;95.40;;;4.40;99.90;;;;;;12316405;28;20415;-35
2023/12/26 23:09:44;;;;;;;111.90;103.57;;;4.40;99.90;;;;;;12316184;28;20047;-35
2023/12/26 23:15:46;;;;;;;117.47;108.68;;;4.30;99.90;;;;;;12339366;28;20070;-35
2023/12/26 23:21:50;;;;;;;117.70;108.95;;;4.30;99.90;;;;;;12332774;28;20390;-34
2023/12/26 23:27:52;;;;;;;120.10;111.10;;;4.20;99.90;;;;;;12332782;28;20499;-35
2023/12/26 23:33:54;;;;;;;117.07;108.53;;;4.10;99.90;;;;;;12316468;28;20054;-35
2023/12/26 23:39:57;;;;;;;114.80;106.40;;;4.10;99.90;;;;;;12336388;28;20063;-35
2023/12/26 23:45:59;;;;;;;123.88;115.30;;;4.20;99.90;;;;;;12327516;28;20057;-35
2023/12/26 23:52:00;;;;;;;122.10;113.78;;;4.10;99.90;;;;;;12325322;28;20057;-34
2023/12/26 23:58:03;;;;;;;127.05;118.05;;;4.10;99.90;;;;;;12342243;28;20402;-35
